sensor_id;sensor_type;location;lat;lon;timestamp;pressure;altitude;pressure_sealevel;temperature;humidity
16331;BME280;8275;48.206;16.340;2023-03-23T00:02:24;98829.28;;;16.74;36.38
16331;BME280;8275;48.206;16.340;2023-03-23T00:04:51;98832.38;;;16.72;36.53
16331;BME280;8275;48.206;16.340;2023-03-23T00:07:20;98832.19;;;16.69;36.69
16331;BME280;8275;48.206;16.340;2023-03-23T00:09:48;98829.69;;;16.67;36.71
16331;BME280;8275;48.206;16.340;2023-03-23T00:12:20;98834.41;;;16.67;36.66
16331;BME280;8275;48.206;16.340;2023-03-23T00:14:59;98831.44;;;16.63;36.52
16331;BME280;8275;48.206;16.340;2023-03-23T00:17:27;98831.75;;;16.62;36.60
16331;BME280;8275;48.206;16.340;2023-03-23T00:19:54;98835.97;;;16.59;36.67
16331;BME280;8275;48.206;16.340;2023-03-23T00:22:23;98828.25;;;16.56;36.59
16331;BME280;8275;48.206;16.340;2023-03-23T00:24:51;98825.00;;;16.54;36.86
16331;BME280;8275;48.206;16.340;2023-03-23T00:27:19;98833.59;;;16.53;36.95
16331;BME280;8275;48.206;16.340;2023-03-23T00:29:48;98828.63;;;16.50;37.09
16331;BME280;8275;48.206;16.340;2023-03-23T00:32:19;98820.94;;;16.47;36.74
16331;BME280;8275;48.206;16.340;2023-03-23T00:34:53;98825.66;;;16.46;36.59
16331;BME280;8275;48.206;16.340;2023-03-23T00:37:23;98823.19;;;16.45;36.97
16331;BME280;8275;48.206;16.340;2023-03-23T00:39:50;98821.03;;;16.42;37.12
16331;BME280;8275;48.206;16.340;2023-03-23T00:42:23;98821.03;;;16.42;37.13
16331;BME280;8275;48.206;16.340;2023-03-23T00:44:52;98827.19;;;16.39;37.17
16331;BME280;8275;48.206;16.340;2023-03-23T00:47:26;98823.09;;;16.36;37.31
16331;BME280;8275;48.206;16.340;2023-03-23T00:49:53;98817.06;;;16.34;37.35
16331;BME280;8275;48.206;16.340;2023-03-23T00:52:23;98818.47;;;16.32;37.53
16331;BME280;8275;48.206;16.340;2023-03-23T00:54:51;98817.13;;;16.29;37.35
16331;BME280;8275;48.206;16.340;2023-03-23T00:57:19;98824.09;;;16.27;37.53
16331;BME280;8275;48.206;16.340;2023-03-23T00:59:50;98817.53;;;16.23;37.64
16331;BME280;8275;48.206;16.340;2023-03-23T01:02:17;98821.94;;;16.24;37.75
16331;BME280;8275;48.206;16.340;2023-03-23T01:04:45;98819.47;;;16.22;37.61
16331;BME280;8275;48.206;16.340;2023-03-23T01:07:13;98819.47;;;16.22;37.60
16331;BME280;8275;48.206;16.340;2023-03-23T01:09:41;98812.63;;;16.20;37.71
16331;BME280;8275;48.206;16.340;2023-03-23T01:12:11;98800.72;;;16.19;37.65
16331;BME280;8275;48.206;16.340;2023-03-23T01:14:38;98810.16;;;16.18;37.76
16331;BME280;8275;48.206;16.340;2023-03-23T01:17:06;98806.88;;;16.16;37.58
16331;BME280;8275;48.206;16.340;2023-03-23T01:19:33;98802.47;;;16.15;37.68
16331;BME280;8275;48.206;16.340;2023-03-23T01:22:01;98806.34;;;16.14;37.70
16331;BME280;8275;48.206;16.340;2023-03-23T01:24:28;98803.06;;;16.12;37.89
16331;BME280;8275;48.206;16.340;2023-03-23T01:26:57;98817.19;;;16.10;37.80
16331;BME280;8275;48.206;16.340;2023-03-23T01:29:27;98804.50;;;16.09;37.91
16331;BME280;8275;48.206;16.340;2023-03-23T01:31:55;98811.66;;;16.10;37.93
16331;BME280;8275;48.206;16.340;2023-03-23T01:34:22;98816.38;;;16.10;37.65
16331;BME280;8275;48.206;16.340;2023-03-23T01:36:49;98804.81;;;16.08;37.94
16331;BME280;8275;48.206;16.340;2023-03-23T01:39:17;98809.81;;;16.06;37.73
16331;BME280;8275;48.206;16.340;2023-03-23T01:41:44;98802.13;;;16.03;37.91
16331;BME280;8275;48.206;16.340;2023-03-23T01:47:33;98790.97;;;15.94;37.94
16331;BME280;8275;48.206;16.340;2023-03-23T01:50:01;98786.03;;;15.91;37.87
16331;BME280;8275;48.206;16.340;2023-03-23T01:52:29;98784.69;;;15.89;37.99
16331;BME280;8275;48.206;16.340;2023-03-23T01:54:58;98777.03;;;15.86;38.15
16331;BME280;8275;48.206;16.340;2023-03-23T01:57:26;98781.22;;;15.83;38.15
16331;BME280;8275;48.206;16.340;2023-03-23T01:59:57;98788.75;;;15.78;38.08
16331;BME280;8275;48.206;16.340;2023-03-23T02:02:27;98791.81;;;15.76;38.00
16331;BME280;8275;48.206;16.340;2023-03-23T02:05:00;98793.84;;;15.71;38.07
16331;BME280;8275;48.206;16.340;2023-03-23T02:07:29;98792.50;;;15.68;38.10
16331;BME280;8275;48.206;16.340;2023-03-23T02:09:58;98797.00;;;15.64;38.16
16331;BME280;8275;48.206;16.340;2023-03-23T02:12:26;98785.75;;;15.61;38.14
16331;BME280;8275;48.206;16.340;2023-03-23T02:14:54;98799.00;;;15.59;38.32
16331;BME280;8275;48.206;16.340;2023-03-23T02:17:27;98799.31;;;15.57;38.43
16331;BME280;8275;48.206;16.340;2023-03-23T02:20:11;98791.63;;;15.54;38.46
16331;BME280;8275;48.206;16.340;2023-03-23T02:26:25;98803.88;;;15.48;38.57
16331;BME280;8275;48.206;16.340;2023-03-23T02:29:32;98798.38;;;15.43;38.65
16331;BME280;8275;48.206;16.340;2023-03-23T02:32:21;98799.22;;;15.43;38.34
16331;BME280;8275;48.206;16.340;2023-03-23T02:34:57;98801.69;;;15.45;38.56
16331;BME280;8275;48.206;16.340;2023-03-23T02:37:32;98796.19;;;15.45;38.62
16331;BME280;8275;48.206;16.340;2023-03-23T02:40:08;98801.69;;;15.45;38.53
16331;BME280;8275;48.206;16.340;2023-03-23T02:42:41;98786.28;;;15.44;38.75
16331;BME280;8275;48.206;16.340;2023-03-23T02:45:11;98799.22;;;15.43;38.79
16331;BME280;8275;48.206;16.340;2023-03-23T02:47:42;98791.78;;;15.44;38.63
16331;BME280;8275;48.206;16.340;2023-03-23T02:50:14;98806.41;;;15.44;38.86
16331;BME280;8275;48.206;16.340;2023-03-23T02:52:44;98813.88;;;15.44;38.67
16331;BME280;8275;48.206;16.340;2023-03-23T02:55:13;98818.53;;;15.43;38.65
16331;BME280;8275;48.206;16.340;2023-03-23T02:57:42;98819.41;;;15.44;39.02
16331;BME280;8275;48.206;16.340;2023-03-23T03:00:15;98813.31;;;15.42;38.88
16331;BME280;8275;48.206;16.340;2023-03-23T03:02:44;98815.78;;;15.43;38.88
16331;BME280;8275;48.206;16.340;2023-03-23T03:05:21;98811.66;;;15.41;39.05
16331;BME280;8275;48.206;16.340;2023-03-23T03:08:01;98812.81;;;15.40;39.09
16331;BME280;8275;48.206;16.340;2023-03-23T03:10:40;98816.66;;;15.39;38.97
16331;BME280;8275;48.206;16.340;2023-03-23T03:13:15;98817.50;;;15.39;38.91
16331;BME280;8275;48.206;16.340;2023-03-23T03:15:48;98812.25;;;15.38;39.11
16331;BME280;8275;48.206;16.340;2023-03-23T03:18:22;98821.69;;;15.37;39.09
16331;BME280;8275;48.206;16.340;2023-03-23T03:20:57;98814.50;;;15.36;39.07
16331;BME280;8275;48.206;16.340;2023-03-23T03:23:28;98814.50;;;15.36;38.97
16331;BME280;8275;48.206;16.340;2023-03-23T03:25:56;98810.94;;;15.35;39.12
16331;BME280;8275;48.206;16.340;2023-03-23T03:28:24;98812.88;;;15.35;39.07
16331;BME280;8275;48.206;16.340;2023-03-23T03:30:55;98821.97;;;15.35;39.17
16331;BME280;8275;48.206;16.340;2023-03-23T03:33:28;98814.81;;;15.34;38.98
16331;BME280;8275;48.206;16.340;2023-03-23T03:36:01;98813.16;;;15.33;39.19
16331;BME280;8275;48.206;16.340;2023-03-23T03:38:29;98813.16;;;15.33;39.27
16331;BME280;8275;48.206;16.340;2023-03-23T03:40:57;98818.97;;;15.32;39.21
16331;BME280;8275;48.206;16.340;2023-03-23T03:43:24;98811.00;;;15.30;39.18
16331;BME280;8275;48.206;16.340;2023-03-23T03:45:51;98822.06;;;15.30;39.28
16331;BME280;8275;48.206;16.340;2023-03-23T03:48:19;98820.41;;;15.29;39.35
16331;BME280;8275;48.206;16.340;2023-03-23T03:50:46;98823.47;;;15.28;39.29
16331;BME280;8275;48.206;16.340;2023-03-23T03:53:15;98823.75;;;15.26;39.27
16331;BME280;8275;48.206;16.340;2023-03-23T03:55:42;98817.44;;;15.26;39.30
16331;BME280;8275;48.206;16.340;2023-03-23T03:58:14;98826.81;;;15.25;39.29
16331;BME280;8275;48.206;16.340;2023-03-23T04:00:41;98825.97;;;15.24;39.48
16331;BME280;8275;48.206;16.340;2023-03-23T04:03:14;98822.44;;;15.24;39.28
16331;BME280;8275;48.206;16.340;2023-03-23T04:05:42;98817.19;;;15.22;39.46
16331;BME280;8275;48.206;16.340;2023-03-23T04:08:10;98819.41;;;15.20;39.35
16331;BME280;8275;48.206;16.340;2023-03-23T04:10:39;98831.88;;;15.18;39.28
16331;BME280;8275;48.206;16.340;2023-03-23T04:13:07;98826.13;;;15.14;39.40
16331;BME280;8275;48.206;16.340;2023-03-23T04:15:34;98823.97;;;15.11;39.45
16331;BME280;8275;48.206;16.340;2023-03-23T04:18:02;98828.13;;;15.09;39.42
16331;BME280;8275;48.206;16.340;2023-03-23T04:20:29;98825.97;;;15.06;39.46
16331;BME280;8275;48.206;16.340;2023-03-23T04:22:56;98822.16;;;15.02;39.53
16331;BME280;8275;48.206;16.340;2023-03-23T04:25:26;98822.78;;;14.99;39.63
16331;BME280;8275;48.206;16.340;2023-03-23T04:27:55;98824.44;;;14.95;39.61
16331;BME280;8275;48.206;16.340;2023-03-23T04:30:24;98822.00;;;14.93;39.64
16331;BME280;8275;48.206;16.340;2023-03-23T04:32:53;98822.31;;;14.92;39.69
16331;BME280;8275;48.206;16.340;2023-03-23T04:35:23;98823.72;;;14.89;39.66
16331;BME280;8275;48.206;16.340;2023-03-23T04:37:52;98823.72;;;14.89;39.74
16331;BME280;8275;48.206;16.340;2023-03-23T04:40:21;98824.81;;;14.88;39.72
16331;BME280;8275;48.206;16.340;2023-03-23T04:42:48;98819.31;;;14.88;39.90
16331;BME280;8275;48.206;16.340;2023-03-23T04:45:21;98824.81;;;14.88;39.86
16331;BME280;8275;48.206;16.340;2023-03-23T04:47:49;98825.66;;;14.89;39.86
16331;BME280;8275;48.206;16.340;2023-03-23T04:50:25;98817.38;;;14.89;39.87
16331;BME280;8275;48.206;16.340;2023-03-23T04:52:53;98823.72;;;14.89;39.98
16331;BME280;8275;48.206;16.340;2023-03-23T04:55:23;98823.72;;;14.89;40.00
16331;BME280;8275;48.206;16.340;2023-03-23T04:57:51;98824.25;;;14.91;39.90
16331;BME280;8275;48.206;16.340;2023-03-23T05:00:20;98826.16;;;14.91;40.08
16331;BME280;8275;48.206;16.340;2023-03-23T05:02:48;98825.88;;;14.92;39.98
16331;BME280;8275;48.206;16.340;2023-03-23T05:05:19;98830.59;;;14.92;40.14
16331;BME280;8275;48.206;16.340;2023-03-23T05:07:46;98828.34;;;14.94;40.00
16331;BME280;8275;48.206;16.340;2023-03-23T05:10:15;98828.63;;;14.92;40.16
16331;BME280;8275;48.206;16.340;2023-03-23T05:12:43;98833.88;;;14.94;40.05
16331;BME280;8275;48.206;16.340;2023-03-23T05:15:12;98832.44;;;14.96;40.15
16331;BME280;8275;48.206;16.340;2023-03-23T05:17:41;98837.34;;;14.99;40.20
16331;BME280;8275;48.206;16.340;2023-03-23T05:20:11;98842.28;;;15.02;40.19
16331;BME280;8275;48.206;16.340;2023-03-23T05:22:40;98845.00;;;15.07;40.24
16331;BME280;8275;48.206;16.340;2023-03-23T05:25:10;98844.94;;;15.12;40.14
16331;BME280;8275;48.206;16.340;2023-03-23T05:27:37;98852.84;;;15.19;40.19
16331;BME280;8275;48.206;16.340;2023-03-23T05:30:09;98857.16;;;15.25;40.19
16331;BME280;8275;48.206;16.340;2023-03-23T05:32:37;98850.47;;;15.31;40.16
16331;BME280;8275;48.206;16.340;2023-03-23T05:35:08;98859.50;;;15.36;40.08
16331;BME280;8275;48.206;16.340;2023-03-23T05:37:35;98861.63;;;15.44;40.19
16331;BME280;8275;48.206;16.340;2023-03-23T05:40:04;98855.72;;;15.51;40.14
16331;BME280;8275;48.206;16.340;2023-03-23T05:42:33;98850.66;;;15.58;40.01
16331;BME280;8275;48.206;16.340;2023-03-23T05:45:02;98866.31;;;15.63;40.01
16331;BME280;8275;48.206;16.340;2023-03-23T05:47:29;98873.09;;;15.70;39.96
16331;BME280;8275;48.206;16.340;2023-03-23T05:49:57;98872.75;;;15.77;40.08
16331;BME280;8275;48.206;16.340;2023-03-23T05:52:28;98861.31;;;15.83;39.94
16331;BME280;8275;48.206;16.340;2023-03-23T05:54:58;98877.19;;;15.91;39.74
16331;BME280;8275;48.206;16.340;2023-03-23T05:57:26;98871.28;;;15.98;39.81
16331;BME280;8275;48.206;16.340;2023-03-23T05:59:54;98879.22;;;16.04;39.61
16331;BME280;8275;48.206;16.340;2023-03-23T06:02:21;98872.16;;;16.12;39.58
16331;BME280;8275;48.206;16.340;2023-03-23T06:04:50;98876.50;;;16.18;39.70
16331;BME280;8275;48.206;16.340;2023-03-23T06:07:23;98877.22;;;16.24;39.63
16331;BME280;8275;48.206;16.340;2023-03-23T06:09:52;98871.59;;;16.29;39.45
16331;BME280;8275;48.206;16.340;2023-03-23T06:12:20;98870.69;;;16.33;39.40
16331;BME280;8275;48.206;16.340;2023-03-23T06:14:48;98875.63;;;16.36;39.48
16331;BME280;8275;48.206;16.340;2023-03-23T06:17:16;98872.78;;;16.41;39.34
16331;BME280;8275;48.206;16.340;2023-03-23T06:19:44;98887.63;;;16.45;39.40
16331;BME280;8275;48.206;16.340;2023-03-23T06:22:14;98880.88;;;16.51;39.25
16331;BME280;8275;48.206;16.340;2023-03-23T06:24:42;98891.88;;;16.56;39.13
16331;BME280;8275;48.206;16.340;2023-03-23T06:27:11;98889.22;;;16.65;39.11
16331;BME280;8275;48.206;16.340;2023-03-23T06:29:39;98886.59;;;16.73;39.04
16331;BME280;8275;48.206;16.340;2023-03-23T06:32:09;98880.00;;;16.83;39.04
16331;BME280;8275;48.206;16.340;2023-03-23T06:34:38;98878.19;;;16.92;38.78
16331;BME280;8275;48.206;16.340;2023-03-23T06:37:06;98883.00;;;17.00;38.76
16331;BME280;8275;48.206;16.340;2023-03-23T06:39:33;98880.31;;;17.09;38.55
16331;BME280;8275;48.206;16.340;2023-03-23T06:42:01;98885.06;;;17.22;38.60
16331;BME280;8275;48.206;16.340;2023-03-23T06:44:30;98876.41;;;17.37;38.49
16331;BME280;8275;48.206;16.340;2023-03-23T06:46:58;98877.75;;;17.53;38.25
16331;BME280;8275;48.206;16.340;2023-03-23T06:49:25;98880.16;;;17.68;38.02
16331;BME280;8275;48.206;16.340;2023-03-23T06:51:53;98875.41;;;17.82;37.82
16331;BME280;8275;48.206;16.340;2023-03-23T06:54:22;98880.38;;;17.94;37.86
16331;BME280;8275;48.206;16.340;2023-03-23T06:56:49;98883.75;;;18.04;37.54
16331;BME280;8275;48.206;16.340;2023-03-23T06:59:17;98883.31;;;18.11;37.57
16331;BME280;8275;48.206;16.340;2023-03-23T07:01:46;98881.72;;;18.18;37.36
16331;BME280;8275;48.206;16.340;2023-03-23T07:04:14;98882.13;;;18.26;37.34
16331;BME280;8275;48.206;16.340;2023-03-23T07:06:42;98880.34;;;18.30;37.35
16331;BME280;8275;48.206;16.340;2023-03-23T07:09:09;98886.56;;;18.35;37.23
16331;BME280;8275;48.206;16.340;2023-03-23T07:11:37;98890.53;;;18.43;37.05
16331;BME280;8275;48.206;16.340;2023-03-23T07:14:04;98890.09;;;18.49;37.08
16331;BME280;8275;48.206;16.340;2023-03-23T07:16:32;98900.75;;;18.56;36.96
16331;BME280;8275;48.206;16.340;2023-03-23T07:19:01;98897.72;;;18.66;36.86
16331;BME280;8275;48.206;16.340;2023-03-23T07:21:28;98900.72;;;18.78;36.66
16331;BME280;8275;48.206;16.340;2023-03-23T07:23:55;98892.78;;;18.85;36.57
16331;BME280;8275;48.206;16.340;2023-03-23T07:26:23;98894.25;;;18.91;36.45
16331;BME280;8275;48.206;16.340;2023-03-23T07:28:50;98893.78;;;18.98;36.34
16331;BME280;8275;48.206;16.340;2023-03-23T07:31:17;98889.09;;;19.07;36.24
16331;BME280;8275;48.206;16.340;2023-03-23T07:33:45;98893.53;;;19.16;35.95
16331;BME280;8275;48.206;16.340;2023-03-23T07:36:14;98894.72;;;19.24;35.88
16331;BME280;8275;48.206;16.340;2023-03-23T07:38:41;98897.34;;;19.29;35.84
16331;BME280;8275;48.206;16.340;2023-03-23T07:41:10;98898.81;;;19.35;35.59
16331;BME280;8275;48.206;16.340;2023-03-23T07:43:37;98892.53;;;19.43;35.71
16331;BME280;8275;48.206;16.340;2023-03-23T07:46:05;98883.38;;;19.51;35.63
16331;BME280;8275;48.206;16.340;2023-03-23T07:48:32;98888.13;;;19.59;35.57
16331;BME280;8275;48.206;16.340;2023-03-23T07:51:00;98888.97;;;19.68;35.17
16331;BME280;8275;48.206;16.340;2023-03-23T07:53:29;98886.84;;;19.74;35.11
16331;BME280;8275;48.206;16.340;2023-03-23T07:55:57;98892.09;;;19.84;34.92
16331;BME280;8275;48.206;16.340;2023-03-23T07:58:24;98890.94;;;19.93;34.83
16331;BME280;8275;48.206;16.340;2023-03-23T08:00:52;98892.75;;;20.06;34.46
16331;BME280;8275;48.206;16.340;2023-03-23T08:03:22;98892.09;;;20.18;34.61
16331;BME280;8275;48.206;16.340;2023-03-23T08:05:50;98887.19;;;20.32;34.39
16331;BME280;8275;48.206;16.340;2023-03-23T08:08:17;98887.66;;;20.43;34.09
16331;BME280;8275;48.206;16.340;2023-03-23T08:10:47;98881.28;;;20.51;34.19
16331;BME280;8275;48.206;16.340;2023-03-23T08:13:14;98877.63;;;20.59;34.28
16331;BME280;8275;48.206;16.340;2023-03-23T08:15:41;98879.91;;;20.65;33.79
16331;BME280;8275;48.206;16.340;2023-03-23T08:18:09;98873.69;;;20.68;33.56
16331;BME280;8275;48.206;16.340;2023-03-23T08:20:36;98880.09;;;20.69;33.38
16331;BME280;8275;48.206;16.340;2023-03-23T08:23:04;98877.94;;;20.66;33.57
16331;BME280;8275;48.206;16.340;2023-03-23T08:25:32;98884.03;;;20.59;33.40
16331;BME280;8275;48.206;16.340;2023-03-23T08:28:01;98880.94;;;20.52;33.27
16331;BME280;8275;48.206;16.340;2023-03-23T08:30:30;98886.53;;;20.44;33.46
16331;BME280;8275;48.206;16.340;2023-03-23T08:32:59;98892.91;;;20.36;33.39
16331;BME280;8275;48.206;16.340;2023-03-23T08:35:27;98899.47;;;20.22;33.48
16331;BME280;8275;48.206;16.340;2023-03-23T08:37:55;98888.63;;;20.12;33.35
16331;BME280;8275;48.206;16.340;2023-03-23T08:40:24;98893.72;;;20.02;33.42
16331;BME280;8275;48.206;16.340;2023-03-23T08:42:52;98894.03;;;19.92;33.63
16331;BME280;8275;48.206;16.340;2023-03-23T08:45:24;98899.59;;;19.83;33.75
16331;BME280;8275;48.206;16.340;2023-03-23T08:47:52;98901.88;;;19.81;33.71
16331;BME280;8275;48.206;16.340;2023-03-23T08:50:24;98901.88;;;19.81;33.62
16331;BME280;8275;48.206;16.340;2023-03-23T08:52:53;98903.34;;;19.87;33.87
16331;BME280;8275;48.206;16.340;2023-03-23T08:55:21;98906.16;;;19.96;33.53
16331;BME280;8275;48.206;16.340;2023-03-23T08:57:50;98910.06;;;20.03;33.33
16331;BME280;8275;48.206;16.340;2023-03-23T09:00:21;98903.72;;;20.11;33.33
16331;BME280;8275;48.206;16.340;2023-03-23T09:02:53;98897.66;;;20.18;33.28
16331;BME280;8275;48.206;16.340;2023-03-23T09:05:25;98891.13;;;20.22;33.72
16331;BME280;8275;48.206;16.340;2023-03-23T09:07:55;98897.34;;;20.28;33.38
16331;BME280;8275;48.206;16.340;2023-03-23T09:10:25;98890.81;;;20.33;33.61
16331;BME280;8275;48.206;16.340;2023-03-23T09:12:54;98897.81;;;20.39;33.36
16331;BME280;8275;48.206;16.340;2023-03-23T09:15:23;98891.91;;;20.49;33.62
16331;BME280;8275;48.206;16.340;2023-03-23T09:17:52;98900.06;;;20.62;33.17
16331;BME280;8275;48.206;16.340;2023-03-23T09:20:23;98900.19;;;20.74;32.80
16331;BME280;8275;48.206;16.340;2023-03-23T09:22:52;98900.50;;;20.90;32.92
16331;BME280;8275;48.206;16.340;2023-03-23T09:25:22;98895.34;;;21.00;32.77
16331;BME280;8275;48.206;16.340;2023-03-23T09:27:56;98899.59;;;21.15;32.71
16331;BME280;8275;48.206;16.340;2023-03-23T09:30:28;98901.34;;;21.28;32.70
16331;BME280;8275;48.206;16.340;2023-03-23T09:32:56;98894.69;;;21.41;32.40
16331;BME280;8275;48.206;16.340;2023-03-23T09:35:27;98901.84;;;21.51;32.01
16331;BME280;8275;48.206;16.340;2023-03-23T09:37:55;98893.78;;;21.58;31.75
16331;BME280;8275;48.206;16.340;2023-03-23T09:40:30;98895.56;;;21.62;32.03
16331;BME280;8275;48.206;16.340;2023-03-23T09:43:29;98900.94;;;21.67;32.02
16331;BME280;8275;48.206;16.340;2023-03-23T09:46:15;98902.06;;;21.75;31.85
16331;BME280;8275;48.206;16.340;2023-03-23T09:48:52;98899.53;;;21.82;31.38
16331;BME280;8275;48.206;16.340;2023-03-23T09:51:33;98897.38;;;21.88;31.72
16331;BME280;8275;48.206;16.340;2023-03-23T09:54:09;98887.31;;;21.95;31.54
16331;BME280;8275;48.206;16.340;2023-03-23T09:56:38;98883.78;;;22.07;31.34
16331;BME280;8275;48.206;16.340;2023-03-23T09:59:15;98884.53;;;22.16;31.14
16331;BME280;8275;48.206;16.340;2023-03-23T10:01:49;98886.09;;;22.25;30.88
16331;BME280;8275;48.206;16.340;2023-03-23T10:04:33;98878.81;;;22.33;30.78
16331;BME280;8275;48.206;16.340;2023-03-23T10:07:11;98881.97;;;22.44;31.13
16331;BME280;8275;48.206;16.340;2023-03-23T10:09:40;98878.75;;;22.54;30.56
16331;BME280;8275;48.206;16.340;2023-03-23T10:12:21;98879.84;;;22.61;30.63
16331;BME280;8275;48.206;16.340;2023-03-23T10:15:05;98883.72;;;22.69;30.52
16331;BME280;8275;48.206;16.340;2023-03-23T10:17:46;98872.56;;;22.81;30.49
16331;BME280;8275;48.206;16.340;2023-03-23T10:20:28;98860.00;;;22.87;30.52
16331;BME280;8275;48.206;16.340;2023-03-23T10:23:08;98858.97;;;22.91;30.38
16331;BME280;8275;48.206;16.340;2023-03-23T10:25:41;98854.78;;;22.97;30.46
16331;BME280;8275;48.206;16.340;2023-03-23T10:28:13;98858.28;;;23.07;30.33
16331;BME280;8275;48.206;16.340;2023-03-23T10:30:42;98854.56;;;23.15;29.81
16331;BME280;8275;48.206;16.340;2023-03-23T10:33:18;98850.38;;;23.21;30.08
16331;BME280;8275;48.206;16.340;2023-03-23T10:35:53;98845.81;;;23.28;30.09
16331;BME280;8275;48.206;16.340;2023-03-23T10:38:27;98850.16;;;23.38;29.86
16331;BME280;8275;48.206;16.340;2023-03-23T10:41:00;98852.72;;;23.43;29.71
16331;BME280;8275;48.206;16.340;2023-03-23T10:43:29;98847.00;;;23.51;29.92
16331;BME280;8275;48.206;16.340;2023-03-23T10:46:05;98840.44;;;23.71;29.78
16331;BME280;8275;48.206;16.340;2023-03-23T10:48:39;98837.66;;;23.99;29.37
16331;BME280;8275;48.206;16.340;2023-03-23T10:51:14;98830.34;;;24.34;29.39
16331;BME280;8275;48.206;16.340;2023-03-23T10:53:45;98821.22;;;24.81;28.93
16331;BME280;8275;48.206;16.340;2023-03-23T10:56:24;98819.75;;;25.34;28.88
16331;BME280;8275;48.206;16.340;2023-03-23T10:58:53;98814.19;;;25.88;28.46
16331;BME280;8275;48.206;16.340;2023-03-23T11:01:30;98814.84;;;26.38;28.11
16331;BME280;8275;48.206;16.340;2023-03-23T11:04:00;98804.31;;;26.96;27.07
16331;BME280;8275;48.206;16.340;2023-03-23T11:06:30;98808.94;;;27.57;26.60
16331;BME280;8275;48.206;16.340;2023-03-23T11:09:13;98791.28;;;28.19;26.33
16331;BME280;8275;48.206;16.340;2023-03-23T11:11:47;98789.16;;;28.83;26.03
16331;BME280;8275;48.206;16.340;2023-03-23T11:14:18;98792.91;;;29.38;25.38
16331;BME280;8275;48.206;16.340;2023-03-23T11:16:51;98786.34;;;29.81;24.98
16331;BME280;8275;48.206;16.340;2023-03-23T11:19:27;98786.91;;;30.25;24.29
16331;BME280;8275;48.206;16.340;2023-03-23T11:22:06;98789.91;;;30.82;24.11
16331;BME280;8275;48.206;16.340;2023-03-23T11:24:37;98782.28;;;31.46;23.26
16331;BME280;8275;48.206;16.340;2023-03-23T11:27:08;98777.69;;;32.01;22.73
16331;BME280;8275;48.206;16.340;2023-03-23T11:29:44;98773.94;;;32.32;22.20
16331;BME280;8275;48.206;16.340;2023-03-23T11:32:15;98766.94;;;32.54;21.55
16331;BME280;8275;48.206;16.340;2023-03-23T11:34:47;98765.66;;;32.63;21.12
16331;BME280;8275;48.206;16.340;2023-03-23T11:37:28;98771.28;;;32.73;21.10
16331;BME280;8275;48.206;16.340;2023-03-23T11:39:58;98764.28;;;32.85;21.06
16331;BME280;8275;48.206;16.340;2023-03-23T11:42:37;98756.50;;;32.96;20.78
16331;BME280;8275;48.206;16.340;2023-03-23T11:45:19;98759.75;;;32.94;20.25
16331;BME280;8275;48.206;16.340;2023-03-23T11:47:58;98760.69;;;32.77;20.19
16331;BME280;8275;48.206;16.340;2023-03-23T11:50:32;98751.56;;;32.52;20.26
16331;BME280;8275;48.206;16.340;2023-03-23T11:53:10;98758.94;;;32.28;20.59
16331;BME280;8275;48.206;16.340;2023-03-23T11:56:00;98764.78;;;32.00;20.03
16331;BME280;8275;48.206;16.340;2023-03-23T11:58:28;98765.22;;;31.81;20.27
16331;BME280;8275;48.206;16.340;2023-03-23T12:01:05;98758.81;;;31.56;20.02
16331;BME280;8275;48.206;16.340;2023-03-23T12:04:13;98750.31;;;31.35;20.83
16331;BME280;8275;48.206;16.340;2023-03-23T12:06:57;98750.34;;;31.20;20.55
16331;BME280;8275;48.206;16.340;2023-03-23T12:09:42;98752.78;;;31.11;20.78
16331;BME280;8275;48.206;16.340;2023-03-23T12:12:18;98737.81;;;31.04;21.01
16331;BME280;8275;48.206;16.340;2023-03-23T12:14:58;98742.25;;;30.91;20.56
16331;BME280;8275;48.206;16.340;2023-03-23T12:17:37;98746.25;;;30.72;20.86
16331;BME280;8275;48.206;16.340;2023-03-23T12:20:20;98755.13;;;30.53;20.87
16331;BME280;8275;48.206;16.340;2023-03-23T12:23:03;98751.06;;;30.36;20.87
16331;BME280;8275;48.206;16.340;2023-03-23T12:25:54;98747.34;;;30.25;21.04
16331;BME280;8275;48.206;16.340;2023-03-23T12:28:37;98741.69;;;30.15;20.86
16331;BME280;8275;48.206;16.340;2023-03-23T12:31:15;98731.59;;;30.14;21.06
16331;BME280;8275;48.206;16.340;2023-03-23T12:33:55;98745.75;;;30.24;21.07
16331;BME280;8275;48.206;16.340;2023-03-23T12:36:37;98733.69;;;30.41;21.05
16331;BME280;8275;48.206;16.340;2023-03-23T12:39:48;98733.34;;;30.68;20.90
16331;BME280;8275;48.206;16.340;2023-03-23T12:42:27;98730.53;;;31.06;20.74
16331;BME280;8275;48.206;16.340;2023-03-23T12:45:06;98729.69;;;31.34;20.32
16331;BME280;8275;48.206;16.340;2023-03-23T12:47:42;98728.88;;;31.37;20.52
16331;BME280;8275;48.206;16.340;2023-03-23T12:50:18;98727.28;;;31.33;20.23
16331;BME280;8275;48.206;16.340;2023-03-23T12:52:53;98721.59;;;31.40;20.17
16331;BME280;8275;48.206;16.340;2023-03-23T12:55:32;98723.53;;;31.71;19.96
16331;BME280;8275;48.206;16.340;2023-03-23T12:58:05;98709.19;;;32.20;19.87
16331;BME280;8275;48.206;16.340;2023-03-23T13:00:52;98706.84;;;32.70;19.24
16331;BME280;8275;48.206;16.340;2023-03-23T13:03:27;98692.81;;;33.04;19.23
16331;BME280;8275;48.206;16.340;2023-03-23T13:06:04;98702.88;;;33.53;19.13
16331;BME280;8275;48.206;16.340;2023-03-23T13:08:37;98695.72;;;34.35;18.46
16331;BME280;8275;48.206;16.340;2023-03-23T13:11:14;98701.94;;;35.07;17.92
16331;BME280;8275;48.206;16.340;2023-03-23T13:13:51;98694.97;;;35.93;17.50
16331;BME280;8275;48.206;16.340;2023-03-23T13:16:28;98696.56;;;36.86;17.11
16331;BME280;8275;48.206;16.340;2023-03-23T13:19:08;98684.38;;;37.75;16.00
16331;BME280;8275;48.206;16.340;2023-03-23T13:21:43;98693.03;;;38.41;15.76
16331;BME280;8275;48.206;16.340;2023-03-23T13:24:16;98671.38;;;38.91;14.70
16331;BME280;8275;48.206;16.340;2023-03-23T13:26:50;98676.19;;;39.41;15.03
16331;BME280;8275;48.206;16.340;2023-03-23T13:29:19;98670.72;;;39.68;14.44
16331;BME280;8275;48.206;16.340;2023-03-23T13:31:50;98666.78;;;39.96;14.21